createdAt,value
2017-12-04T00:01:05.003Z,3.09
2017-12-04T00:02:14.431Z,3.06
2017-12-04T00:03:23.860Z,3.18
2017-12-04T00:04:33.798Z,3.19
2017-12-04T00:05:43.939Z,3.19
2017-12-04T00:06:53.878Z,3.18
2017-12-04T00:08:03.555Z,3.21
2017-12-04T00:09:13.253Z,3.21
2017-12-04T00:10:23.211Z,3.19
2017-12-04T00:11:32.911Z,3.16
2017-12-04T00:12:42.868Z,3.26
2017-12-04T00:13:52.805Z,3.27
2017-12-04T00:15:02.242Z,3.22
2017-12-04T00:16:11.956Z,3.26
2017-12-04T00:17:21.383Z,3.34
2017-12-04T00:18:31.328Z,3.31
2017-12-04T00:19:41.274Z,3.21
2017-12-04T00:20:50.954Z,3.31
2017-12-04T00:22:00.890Z,3.29
2017-12-04T00:23:10.582Z,3.27
2017-12-04T00:24:20.266Z,3.31
2017-12-04T00:25:29.958Z,3.3
2017-12-04T00:26:39.664Z,3.3
2017-12-04T00:27:49.350Z,3.34
2017-12-04T00:28:59.291Z,3.34
2017-12-04T00:30:09.233Z,3.3
2017-12-04T00:31:18.144Z,3.31
2017-12-04T00:32:27.839Z,3.48
2017-12-04T00:33:37.521Z,3.41
2017-12-04T00:34:47.463Z,3.36
2017-12-04T00:35:57.143Z,3.4
2017-12-04T00:37:07.086Z,3.4
2017-12-04T00:38:17.055Z,3.34
2017-12-04T00:39:26.224Z,3.48
2017-12-04T00:40:36.162Z,3.49
2017-12-04T00:41:45.852Z,3.45
2017-12-04T00:42:55.540Z,3.41
2017-12-04T00:44:05.493Z,3.36
2017-12-04T00:45:15.441Z,3.45
2017-12-04T00:46:25.117Z,3.45
2017-12-04T00:47:35.062Z,3.48
2017-12-04T00:48:44.230Z,3.46
2017-12-04T00:49:54.169Z,3.41
2017-12-04T00:51:03.620Z,3.52
2017-12-04T00:52:13.573Z,3.52
2017-12-04T00:53:23.253Z,3.52
2017-12-04T00:54:32.425Z,3.52
2017-12-04T00:55:42.119Z,3.48
2017-12-04T00:56:51.555Z,3.52
2017-12-04T00:58:01.247Z,3.49
2017-12-04T00:59:11.187Z,3.49
2017-12-04T01:00:21.137Z,3.49
2017-12-04T01:01:30.823Z,3.48
2017-12-04T01:02:40.778Z,3.53
2017-12-04T01:03:50.488Z,3.49
2017-12-04T01:05:00.431Z,3.45
2017-12-04T01:06:10.124Z,3.49
2017-12-04T01:07:19.805Z,3.49
2017-12-04T01:08:29.750Z,3.55
2017-12-04T01:09:39.432Z,3.52
2017-12-04T01:10:49.406Z,3.45
2017-12-04T01:11:59.351Z,3.56
2017-12-04T01:13:09.299Z,3.56
2017-12-04T01:14:18.723Z,3.5
2017-12-04T01:15:28.679Z,3.53
2017-12-04T01:16:38.364Z,3.48
2017-12-04T01:17:48.064Z,3.49
2017-12-04T01:18:58.023Z,3.5
2017-12-04T01:20:07.711Z,3.53
2017-12-04T01:21:17.150Z,3.53
2017-12-04T01:22:26.843Z,3.5
2017-12-04T01:23:36.786Z,3.49
2017-12-04T01:24:46.734Z,3.5
2017-12-04T01:25:56.167Z,3.52
2017-12-04T01:27:05.597Z,3.48
2017-12-04T01:28:15.279Z,3.53
2017-12-04T01:29:24.964Z,3.5
2017-12-04T01:30:34.925Z,3.48
2017-12-04T01:31:44.878Z,3.56
2017-12-04T01:32:54.815Z,3.46
2017-12-04T01:34:04.779Z,3.48
2017-12-04T01:35:14.714Z,3.48
2017-12-04T01:36:24.476Z,3.53
2017-12-04T01:37:34.413Z,3.46
2017-12-04T01:38:44.101Z,3.56
2017-12-04T01:39:53.784Z,3.56
2017-12-04T01:41:03.732Z,3.53
2017-12-04T01:42:13.665Z,3.5
2017-12-04T01:43:23.609Z,3.58
2017-12-04T01:44:33.550Z,3.48
2017-12-04T01:45:43.512Z,3.5
2017-12-04T01:46:52.696Z,3.52
2017-12-04T01:48:02.377Z,3.48
2017-12-04T01:49:12.323Z,3.53
2017-12-04T01:50:22.012Z,3.5
2017-12-04T01:51:31.696Z,3.58
2017-12-04T01:52:41.378Z,3.49
2017-12-04T01:53:50.803Z,3.55
2017-12-04T01:55:00.491Z,3.48
2017-12-04T01:56:10.174Z,3.46
2017-12-04T01:57:19.860Z,3.56
2017-12-04T01:58:29.795Z,3.53
2017-12-04T01:59:39.737Z,3.61
2017-12-04T02:00:49.435Z,3.53
2017-12-04T02:01:59.127Z,3.59
2017-12-04T02:03:08.821Z,3.56
2017-12-04T02:04:18.506Z,3.64
2017-12-04T02:05:28.203Z,3.68
2017-12-04T02:06:38.148Z,3.63
2017-12-04T02:07:47.826Z,3.61
2017-12-04T02:08:57.764Z,3.68
2017-12-04T02:10:07.455Z,3.68
2017-12-04T02:11:17.399Z,3.64
2017-12-04T02:12:27.351Z,3.68
2017-12-04T02:13:37.308Z,3.67
2017-12-04T02:14:46.751Z,3.68
2017-12-04T02:15:56.446Z,3.73
2017-12-04T02:17:06.123Z,3.67
2017-12-04T02:18:15.815Z,3.68
2017-12-04T02:19:25.251Z,3.68
2017-12-04T02:20:35.200Z,3.73
2017-12-04T02:21:45.148Z,3.67
2017-12-04T02:22:55.066Z,3.71
2017-12-04T02:24:05.063Z,3.67
2017-12-04T02:25:15.072Z,3.71
2017-12-04T02:26:24.498Z,3.73
2017-12-04T02:27:34.440Z,3.74
2017-12-04T02:28:43.869Z,3.74
2017-12-04T02:29:53.605Z,3.74
2017-12-04T02:31:03.295Z,3.64
2017-12-04T02:32:12.981Z,3.66
2017-12-04T02:33:22.683Z,3.74
2017-12-04T02:34:32.394Z,3.66
2017-12-04T02:35:42.349Z,3.71
2017-12-04T02:36:51.790Z,3.68
2017-12-04T02:38:01.722Z,3.67
2017-12-04T02:39:11.403Z,3.77
2017-12-04T02:40:21.345Z,3.76
2017-12-04T02:41:31.039Z,3.7
2017-12-04T02:42:40.463Z,3.78
2017-12-04T02:43:50.405Z,3.86
2017-12-04T02:45:00.083Z,3.85
2017-12-04T02:46:09.785Z,3.78
2017-12-04T02:47:19.728Z,3.81
2017-12-04T02:48:29.672Z,3.81
2017-12-04T02:49:38.856Z,3.78
2017-12-04T02:50:48.811Z,3.89
2017-12-04T02:51:58.761Z,3.86
2017-12-04T02:53:08.458Z,3.86
2017-12-04T02:54:17.628Z,3.91
2017-12-04T02:55:27.591Z,3.89
2017-12-04T02:56:37.532Z,3.89
2017-12-04T02:57:47.454Z,3.76
2017-12-04T02:58:57.388Z,3.81
2017-12-04T03:00:06.818Z,3.81
2017-12-04T03:01:16.766Z,3.91
2017-12-04T03:02:26.448Z,3.78
2017-12-04T03:03:35.879Z,3.89
2017-12-04T03:04:45.573Z,3.78
2017-12-04T03:05:54.994Z,3.89
2017-12-04T03:07:05.008Z,3.94
2017-12-04T03:08:14.946Z,3.78
2017-12-04T03:09:24.648Z,3.85
2017-12-04T03:10:34.327Z,3.88
2017-12-04T03:11:44.273Z,3.94
2017-12-04T03:12:54.021Z,3.77
2017-12-04T03:14:03.461Z,3.82
2017-12-04T03:15:13.153Z,3.89
2017-12-04T03:16:22.578Z,3.78
2017-12-04T03:17:32.526Z,3.84
2017-12-04T03:18:41.961Z,3.84
2017-12-04T03:19:51.642Z,3.99
2017-12-04T03:21:01.323Z,3.88
2017-12-04T03:22:11.280Z,3.78
2017-12-04T03:23:20.723Z,3.92
2017-12-04T03:24:29.897Z,3.89
2017-12-04T03:25:39.593Z,3.89
2017-12-04T03:26:49.533Z,3.84
2017-12-04T03:27:58.966Z,3.86
2017-12-04T03:29:08.644Z,3.85
2017-12-04T03:30:17.572Z,3.81
2017-12-04T03:31:27.284Z,3.91
2017-12-04T03:32:36.708Z,3.84
2017-12-04T03:33:46.658Z,3.85
2017-12-04T03:34:56.602Z,3.77
2017-12-04T03:36:06.040Z,3.82
2017-12-04T03:37:15.745Z,3.95
2017-12-04T03:38:25.445Z,3.81
2017-12-04T03:39:35.193Z,3.86
2017-12-04T03:40:45.190Z,3.99
2017-12-04T03:41:55.133Z,3.92
2017-12-04T03:43:04.824Z,3.95
2017-12-04T03:44:14.503Z,3.91
2017-12-04T03:45:23.931Z,3.94
2017-12-04T03:46:33.870Z,3.89
2017-12-04T03:47:43.558Z,3.96
2017-12-04T03:48:53.500Z,3.92
2017-12-04T03:50:03.181Z,3.95
2017-12-04T03:51:12.619Z,3.92
2017-12-04T03:52:22.577Z,3.96
2017-12-04T03:53:32.260Z,4.02
2017-12-04T03:54:42.205Z,4.06
2017-12-04T03:55:52.140Z,4.04
2017-12-04T03:57:02.077Z,4.02
2017-12-04T03:58:12.074Z,4.03
2017-12-04T03:59:22.017Z,4.04
2017-12-04T04:00:31.440Z,4.02
2017-12-04T04:01:41.377Z,4
2017-12-04T04:02:51.068Z,4.03
2017-12-04T04:04:01.011Z,4
2017-12-04T04:05:10.700Z,4.09
2017-12-04T04:06:20.747Z,4.04
2017-12-04T04:07:30.434Z,4.02
2017-12-04T04:08:40.126Z,4.09
2017-12-04T04:09:49.807Z,4.12
2017-12-04T04:10:59.750Z,4.13
2017-12-04T04:12:09.434Z,4.14
2017-12-04T04:13:19.383Z,4.18
2017-12-04T04:14:28.810Z,4.16
2017-12-04T04:15:38.753Z,4.14
2017-12-04T04:16:47.923Z,4.14
2017-12-04T04:17:57.867Z,4.16
2017-12-04T04:19:07.300Z,4.16
2017-12-04T04:20:16.730Z,4.21
2017-12-04T04:21:26.686Z,4.16
2017-12-04T04:22:36.837Z,4.22
2017-12-04T04:23:46.782Z,4.2
2017-12-04T04:24:56.212Z,4.25
2017-12-04T04:26:05.887Z,4.21
2017-12-04T04:27:15.844Z,4.24
2017-12-04T04:28:25.782Z,4.22
2017-12-04T04:29:35.733Z,4.24
2017-12-04T04:30:45.421Z,4.3
2017-12-04T04:31:55.361Z,4.36
2017-12-04T04:33:05.040Z,4.34
2017-12-04T04:34:14.986Z,4.43
2017-12-04T04:35:24.410Z,4.32
2017-12-04T04:36:34.098Z,4.32
2017-12-04T04:37:43.788Z,4.39
2017-12-04T04:38:53.476Z,4.36
2017-12-04T04:40:03.477Z,4.39
2017-12-04T04:41:12.967Z,4.39
2017-12-04T04:42:22.654Z,4.39
2017-12-04T04:43:32.337Z,4.4
2017-12-04T04:44:42.031Z,4.43
2017-12-04T04:45:51.985Z,4.56
2017-12-04T04:47:01.160Z,4.52
2017-12-04T04:48:11.120Z,4.5
2017-12-04T04:49:20.809Z,4.57
2017-12-04T04:50:30.755Z,4.52
2017-12-04T04:51:40.701Z,4.52
2017-12-04T04:52:50.132Z,4.49
2017-12-04T04:54:00.134Z,4.53
2017-12-04T04:55:09.830Z,4.52
2017-12-04T04:56:19.785Z,4.56
2017-12-04T04:57:29.733Z,4.53
2017-12-04T04:58:39.417Z,4.58
2017-12-04T04:59:49.122Z,4.49
2017-12-04T05:00:59.070Z,4.5
2017-12-04T05:02:08.517Z,4.53
2017-12-04T05:03:18.468Z,4.56
2017-12-04T05:04:28.156Z,4.58
2017-12-04T05:05:38.097Z,4.63
2017-12-04T05:06:47.786Z,4.64
2017-12-04T05:07:57.720Z,4.64
2017-12-04T05:09:07.402Z,4.61
2017-12-04T05:10:17.416Z,4.61
2017-12-04T05:11:27.367Z,4.7
2017-12-04T05:12:37.048Z,4.74
2017-12-04T05:13:46.741Z,4.66
2017-12-04T05:14:56.680Z,4.63
2017-12-04T05:16:06.621Z,4.6
2017-12-04T05:17:16.043Z,4.63
2017-12-04T05:18:25.737Z,4.7
2017-12-04T05:19:35.429Z,4.75
2017-12-04T05:20:45.114Z,4.7
2017-12-04T05:21:54.793Z,4.75
2017-12-04T05:23:04.740Z,4.66
2017-12-04T05:24:14.688Z,4.7
2017-12-04T05:25:24.378Z,4.68
2017-12-04T05:26:34.058Z,4.74
2017-12-04T05:27:43.744Z,4.7
2017-12-04T05:28:53.689Z,4.71
2017-12-04T05:30:03.118Z,4.74
2017-12-04T05:31:13.062Z,4.84
2017-12-04T05:32:22.744Z,4.71
2017-12-04T05:33:32.172Z,4.71
2017-12-04T05:34:41.856Z,4.74
2017-12-04T05:35:51.562Z,4.71
2017-12-04T05:37:00.991Z,4.82
2017-12-04T05:38:10.684Z,4.76
2017-12-04T05:39:20.383Z,4.7
2017-12-04T05:40:30.064Z,4.7
2017-12-04T05:41:39.505Z,4.71
2017-12-04T05:42:49.449Z,4.74
2017-12-04T05:43:59.146Z,4.74
2017-12-04T05:45:08.834Z,4.83
2017-12-04T05:46:18.521Z,4.7
2017-12-04T05:47:28.201Z,4.7
2017-12-04T05:48:37.118Z,4.66
2017-12-04T05:49:46.813Z,4.71
2017-12-04T05:50:56.513Z,4.71
2017-12-04T05:52:05.936Z,4.7
2017-12-04T05:53:15.622Z,4.71
2017-12-04T05:54:25.572Z,4.74
2017-12-04T05:55:35.566Z,4.7
2017-12-04T05:56:45.521Z,4.68
2017-12-04T05:57:55.222Z,4.71
2017-12-04T05:59:04.906Z,4.71
2017-12-04T06:00:14.855Z,4.75
2017-12-04T06:01:24.824Z,4.67
2017-12-04T06:02:34.778Z,4.71
2017-12-04T06:03:44.223Z,4.76
2017-12-04T06:04:53.922Z,4.68
2017-12-04T06:06:03.685Z,4.75
2017-12-04T06:07:13.395Z,4.71
2017-12-04T06:08:23.342Z,4.74
2017-12-04T06:09:33.282Z,4.7
2017-12-04T06:10:42.994Z,4.74
2017-12-04T06:11:52.948Z,4.7
2017-12-04T06:13:02.640Z,4.7
2017-12-04T06:14:12.609Z,4.68
2017-12-04T06:15:22.291Z,4.68
2017-12-04T06:16:32.229Z,4.67
2017-12-04T06:17:42.181Z,4.67
2017-12-04T06:18:52.114Z,4.68
2017-12-04T06:20:02.052Z,4.67
2017-12-04T06:21:12.000Z,4.68
2017-12-04T06:22:21.425Z,4.71
2017-12-04T06:23:31.355Z,4.7
2017-12-04T06:24:41.300Z,4.75
2017-12-04T06:25:51.245Z,4.75
2017-12-04T06:27:00.686Z,4.74
2017-12-04T06:28:10.646Z,4.71
2017-12-04T06:29:20.069Z,4.7
2017-12-04T06:30:30.015Z,4.7
2017-12-04T06:31:39.722Z,4.74
2017-12-04T06:32:49.404Z,4.74
2017-12-04T06:33:59.086Z,4.7
2017-12-04T06:35:08.778Z,4.74
2017-12-04T06:36:18.708Z,4.64
2017-12-04T06:37:28.655Z,4.67
2017-12-04T06:38:38.601Z,4.71
2017-12-04T06:39:48.303Z,4.7
2017-12-04T06:40:57.739Z,4.71
2017-12-04T06:42:07.421Z,4.7
2017-12-04T06:43:17.099Z,4.7
2017-12-04T06:44:26.796Z,4.68
2017-12-04T06:45:36.222Z,4.67
2017-12-04T06:46:46.167Z,4.7
2017-12-04T06:47:55.847Z,4.7
2017-12-04T06:49:05.792Z,4.58
2017-12-04T06:50:15.489Z,4.61
2017-12-04T06:51:25.427Z,4.63
2017-12-04T06:52:35.389Z,4.6
2017-12-04T06:53:45.089Z,4.64
2017-12-04T06:54:55.044Z,4.68
2017-12-04T06:56:04.731Z,4.63
2017-12-04T06:57:14.663Z,4.66
2017-12-04T06:58:24.341Z,4.63
2017-12-04T06:59:34.032Z,4.61
2017-12-04T07:00:43.722Z,4.57
2017-12-04T07:01:53.148Z,4.74
2017-12-04T07:03:03.090Z,4.64
2017-12-04T07:04:12.764Z,4.61
2017-12-04T07:05:22.445Z,4.64
2017-12-04T07:06:31.967Z,4.63
2017-12-04T07:07:41.724Z,4.57
2017-12-04T07:08:51.698Z,4.6
2017-12-04T07:10:01.399Z,4.61
2017-12-04T07:11:11.105Z,4.58
2017-12-04T07:12:20.553Z,4.66
2017-12-04T07:13:30.497Z,4.68
2017-12-04T07:14:40.457Z,4.68
2017-12-04T07:15:49.633Z,4.68
2017-12-04T07:16:59.309Z,4.63
2017-12-04T07:18:09.001Z,4.67
2017-12-04T07:19:18.709Z,4.6
2017-12-04T07:20:28.422Z,4.67
2017-12-04T07:21:38.117Z,4.61
2017-12-04T07:22:47.555Z,4.67
2017-12-04T07:23:57.235Z,4.66
2017-12-04T07:25:07.183Z,4.7
2017-12-04T07:26:17.142Z,4.66
2017-12-04T07:27:26.827Z,4.67
2017-12-04T07:28:36.777Z,4.67
2017-12-04T07:29:46.475Z,4.71
2017-12-04T07:30:56.414Z,4.66
2017-12-04T07:32:05.860Z,4.63
2017-12-04T07:33:15.565Z,4.66
2017-12-04T07:34:25.516Z,4.7
2017-12-04T07:35:35.248Z,4.68
2017-12-04T07:36:45.205Z,4.7
2017-12-04T07:37:54.900Z,4.68
2017-12-04T07:39:04.593Z,4.76
2017-12-04T07:40:14.544Z,4.68
2017-12-04T07:41:23.974Z,4.74
2017-12-04T07:42:33.935Z,4.68
2017-12-04T07:43:43.358Z,4.74
2017-12-04T07:44:52.798Z,4.68
2017-12-04T07:46:02.251Z,4.61
2017-12-04T07:47:11.952Z,4.68
2017-12-04T07:48:21.382Z,4.63
2017-12-04T07:49:31.139Z,4.63
2017-12-04T07:50:40.678Z,4.7
2017-12-04T07:51:50.646Z,4.64
2017-12-04T07:53:00.334Z,4.67
2017-12-04T07:54:10.291Z,4.66
2017-12-04T07:55:20.066Z,4.67
2017-12-04T07:56:30.076Z,4.74
2017-12-04T07:57:39.784Z,4.75
2017-12-04T07:58:49.745Z,4.7
2017-12-04T07:59:59.925Z,4.68
2017-12-04T08:01:09.873Z,4.78
2017-12-04T08:02:19.817Z,4.78
2017-12-04T08:03:29.780Z,4.68
2017-12-04T08:04:39.495Z,4.74
2017-12-04T08:05:49.226Z,4.74
2017-12-04T08:06:58.971Z,4.7
2017-12-04T08:08:08.414Z,4.79
2017-12-04T08:09:18.352Z,4.75
2017-12-04T08:10:28.053Z,4.79
2017-12-04T08:11:37.736Z,4.67
2017-12-04T08:12:46.919Z,4.75
2017-12-04T08:13:56.614Z,4.89
2017-12-04T08:15:06.314Z,4.83
2017-12-04T08:16:16.263Z,4.95
2017-12-04T08:17:26.216Z,5
2017-12-04T08:18:35.916Z,4.95
2017-12-04T08:19:45.863Z,5.19
2017-12-04T08:20:55.826Z,5.07
2017-12-04T08:22:05.006Z,5.22
2017-12-04T08:23:14.981Z,5.13
2017-12-04T08:24:24.654Z,5.1
2017-12-04T08:25:34.615Z,5.13
2017-12-04T08:26:44.592Z,5.18
2017-12-04T08:27:54.280Z,5.08
2017-12-04T08:29:03.977Z,5.15
2017-12-04T08:30:13.401Z,5.2
2017-12-04T08:31:22.859Z,5.19
2017-12-04T08:32:32.565Z,5.13
2017-12-04T08:33:42.263Z,5.18
2017-12-04T08:34:52.222Z,5.12
2017-12-04T08:36:01.924Z,5.1
2017-12-04T08:37:11.876Z,5.04
2017-12-04T08:38:21.828Z,5.08
2017-12-04T08:39:31.522Z,5.08
2017-12-04T08:40:41.214Z,5.02
2017-12-04T08:41:51.163Z,5.02
2017-12-04T08:43:00.878Z,5.2
2017-12-04T08:44:10.592Z,5.19
2017-12-04T08:45:20.288Z,5.18
2017-12-04T08:46:30.269Z,5.15
2017-12-04T08:47:39.976Z,5.13
2017-12-04T08:48:49.669Z,5.13
2017-12-04T08:49:59.096Z,5.16
2017-12-04T08:51:08.572Z,5.1
2017-12-04T08:52:18.311Z,5.16
2017-12-04T08:53:27.770Z,5.15
2017-12-04T08:54:37.470Z,5.19
2017-12-04T08:55:46.912Z,5.15
2017-12-04T08:56:56.897Z,5.19
2017-12-04T08:58:05.820Z,5.22
2017-12-04T08:59:15.517Z,5.22
2017-12-04T09:00:25.294Z,5.25
2017-12-04T09:01:35.237Z,5.23
2017-12-04T09:02:44.930Z,5.26
2017-12-04T09:03:54.626Z,5.33
2017-12-04T09:05:03.797Z,5.33
2017-12-04T09:06:13.503Z,5.36
2017-12-04T09:07:23.195Z,5.31
2017-12-04T09:08:32.927Z,5.29
2017-12-04T09:09:42.884Z,5.36
2017-12-04T09:10:52.580Z,5.38
2017-12-04T09:12:02.539Z,5.37
2017-12-04T09:13:12.254Z,5.43
2017-12-04T09:14:22.208Z,5.47
2017-12-04T09:15:32.171Z,5.44
2017-12-04T09:16:41.859Z,5.46
2017-12-04T09:17:51.834Z,5.43
2017-12-04T09:19:01.575Z,5.47
2017-12-04T09:20:11.547Z,5.49
2017-12-04T09:21:21.495Z,5.47
2017-12-04T09:22:30.415Z,5.4
2017-12-04T09:23:40.379Z,5.44
2017-12-04T09:24:50.071Z,5.49
2017-12-04T09:26:00.103Z,5.51
2017-12-04T09:27:10.080Z,5.38
2017-12-04T09:28:19.623Z,5.4
2017-12-04T09:29:29.334Z,5.44
2017-12-04T09:30:39.052Z,5.52
2017-12-04T09:31:49.056Z,5.47
2017-12-04T09:32:58.807Z,5.44
2017-12-04T09:34:08.501Z,5.41
2017-12-04T09:35:17.950Z,5.43
2017-12-04T09:36:27.942Z,5.51
2017-12-04T09:37:37.892Z,5.52
2017-12-04T09:38:47.590Z,5.46
2017-12-04T09:39:57.291Z,5.49
2017-12-04T09:41:07.263Z,5.51
2017-12-04T09:42:17.223Z,5.58
2017-12-04T09:43:26.664Z,5.47
2017-12-04T09:44:36.638Z,5.58
2017-12-04T09:45:46.066Z,5.64
2017-12-04T09:46:55.514Z,5.56
2017-12-04T09:48:05.208Z,5.55
2017-12-04T09:49:15.155Z,5.59
2017-12-04T09:50:24.854Z,5.51
2017-12-04T09:51:34.271Z,5.46
2017-12-04T09:52:43.453Z,5.37
2017-12-04T09:53:53.407Z,5.29
2017-12-04T09:55:03.091Z,5.2
2017-12-04T09:56:12.263Z,5.23
2017-12-04T09:57:21.448Z,5.19
2017-12-04T09:58:31.133Z,5.01
2017-12-04T09:59:41.082Z,4.76
2017-12-04T10:00:51.047Z,4.24
2017-12-04T10:02:01.250Z,3.84
2017-12-04T10:03:11.213Z,3.27
2017-12-04T10:04:20.386Z,2.85
2017-12-04T10:05:29.826Z,2.4
2017-12-04T10:06:39.514Z,2.32
2017-12-04T10:07:48.943Z,2.14
2017-12-04T10:08:58.905Z,2.15
2017-12-04T10:10:08.859Z,2.08
2017-12-04T10:11:18.861Z,2.04
2017-12-04T10:12:28.875Z,2.1
2017-12-04T10:13:38.580Z,2.04
2017-12-04T10:14:48.544Z,2.05
2017-12-04T10:15:58.516Z,2.04
2017-12-04T10:17:08.235Z,2.08
2017-12-04T10:18:18.195Z,2.03
2017-12-04T10:19:27.897Z,2.04
2017-12-04T10:20:37.605Z,2.01
2017-12-04T10:21:47.307Z,2.01
2017-12-04T10:22:57.005Z,2.01
2017-12-04T10:24:07.231Z,2.01
2017-12-04T10:25:17.187Z,2.12
2017-12-04T10:26:26.371Z,2.14
2017-12-04T10:27:36.324Z,2.25
2017-12-04T10:28:45.774Z,2.34
2017-12-04T10:29:55.511Z,2.37
2017-12-04T10:31:05.470Z,2.4
2017-12-04T10:32:14.916Z,2.36
2017-12-04T10:33:24.091Z,2.41
2017-12-04T10:34:33.788Z,2.51
2017-12-04T10:35:43.483Z,2.47
2017-12-04T10:36:53.231Z,2.62
2017-12-04T10:38:17.998Z,2.68
2017-12-04T10:39:28.166Z,2.7
2017-12-04T10:40:38.389Z,2.8
2017-12-04T10:41:48.103Z,2.75
2017-12-04T10:42:57.806Z,2.85
2017-12-04T10:44:07.767Z,2.91
2017-12-04T10:45:17.729Z,3
2017-12-04T10:46:27.433Z,2.93
2017-12-04T10:47:37.036Z,2.95
2017-12-04T10:48:47.098Z,3
2017-12-04T10:49:56.279Z,3.06
2017-12-04T10:51:05.722Z,3.08
2017-12-04T10:52:15.433Z,3.09
2017-12-04T10:53:24.874Z,3.24
2017-12-04T10:54:34.577Z,3.21
2017-12-04T10:55:44.022Z,3.37
2017-12-04T10:56:53.475Z,3.45
2017-12-04T10:58:02.939Z,3.85
2017-12-04T10:59:12.916Z,3.95
2017-12-04T11:00:22.963Z,4.25
2017-12-04T11:01:32.685Z,4.52
2017-12-04T11:02:42.642Z,4.74
2017-12-04T11:03:52.594Z,5.07
2017-12-04T11:05:02.311Z,5.13
2017-12-04T11:06:12.024Z,5.38
2017-12-04T11:07:21.746Z,5.52
2017-12-04T11:08:31.730Z,5.67
2017-12-04T11:09:41.679Z,5.65
2017-12-04T11:10:51.461Z,5.69
2017-12-04T11:12:01.175Z,5.7
2017-12-04T11:13:10.979Z,5.88
2017-12-04T11:14:20.965Z,5.98
2017-12-04T11:15:30.426Z,6.17
2017-12-04T11:16:40.142Z,6.13
2017-12-04T11:17:49.344Z,6.25
2017-12-04T11:18:59.081Z,6.43
2017-12-04T11:20:09.060Z,6.6
2017-12-04T11:21:17.995Z,6.57
2017-12-04T11:22:27.964Z,6.93
2017-12-04T11:23:37.657Z,6.92
2017-12-04T11:24:47.609Z,6.96
2017-12-04T11:25:57.071Z,7.04
2017-12-04T11:27:06.792Z,7.21
2017-12-04T11:28:16.532Z,7.23
2017-12-04T11:29:26.507Z,7.29
2017-12-04T11:30:36.469Z,7.32
2017-12-04T11:31:46.210Z,7.15
2017-12-04T11:32:56.201Z,7
2017-12-04T11:34:06.161Z,7.15
2017-12-04T11:35:15.656Z,7.32
2017-12-04T11:36:25.374Z,7.44
2017-12-04T11:37:34.814Z,7.37
2017-12-04T11:38:44.526Z,7.18
2017-12-04T11:39:54.484Z,6.92
2017-12-04T11:41:04.441Z,6.95
2017-12-04T11:42:13.898Z,7.15
2017-12-04T11:43:23.874Z,7.25
2017-12-04T11:44:33.932Z,7.31
2017-12-04T11:45:43.644Z,7.32
2017-12-04T11:46:53.622Z,7.44
2017-12-04T11:48:03.594Z,7.33
2017-12-04T11:49:13.565Z,7.33
2017-12-04T11:50:23.270Z,7.31
2017-12-04T11:51:33.266Z,7.04
2017-12-04T11:52:42.702Z,6.85
2017-12-04T11:53:52.680Z,6.77
2017-12-04T11:55:02.650Z,6.7
2017-12-04T11:56:12.422Z,6.5
2017-12-04T11:57:22.374Z,6.36
2017-12-04T11:58:32.356Z,6.29
2017-12-04T11:59:42.074Z,6.34
2017-12-04T12:00:51.795Z,6.2
2017-12-04T12:02:01.772Z,6.22
2017-12-04T12:03:11.209Z,6.34
2017-12-04T12:04:20.920Z,6.31
2017-12-04T12:05:30.628Z,6.35
2017-12-04T12:06:39.790Z,6.38
2017-12-04T12:07:49.499Z,6.28
2017-12-04T12:08:59.458Z,6.28
2017-12-04T12:10:09.664Z,6.28
2017-12-04T12:11:19.123Z,6.35
2017-12-04T12:12:28.817Z,6.59
2017-12-04T12:13:39.254Z,6.53
2017-12-04T12:14:49.284Z,6.72
2017-12-04T12:15:59.273Z,6.87
2017-12-04T12:17:08.715Z,6.83
2017-12-04T12:18:18.171Z,6.96
2017-12-04T12:19:27.884Z,7.03
2017-12-04T12:20:37.880Z,7.14
2017-12-04T12:21:47.893Z,7.22
2017-12-04T12:22:57.837Z,7.13
2017-12-04T12:24:07.282Z,7.18
2017-12-04T12:25:17.298Z,7.05
2017-12-04T12:26:26.740Z,6.97
2017-12-04T12:27:36.437Z,6.89
2017-12-04T12:28:46.395Z,6.92
2017-12-04T12:29:55.570Z,6.95
2017-12-04T12:31:05.298Z,7.05
2017-12-04T12:32:14.754Z,7.1
2017-12-04T12:33:24.730Z,7.07
2017-12-04T12:34:34.716Z,6.92
2017-12-04T12:35:44.720Z,6.96
2017-12-04T12:36:54.713Z,6.87
2017-12-04T12:38:04.409Z,6.83
2017-12-04T12:39:14.357Z,6.56
2017-12-04T12:40:24.072Z,6.41
2017-12-04T12:41:33.517Z,6.38
2017-12-04T12:42:43.245Z,6.2
2017-12-04T12:43:53.224Z,6.15
2017-12-04T12:45:03.200Z,6.09
2017-12-04T12:46:13.153Z,6.1
2017-12-04T12:47:22.869Z,6.09
2017-12-04T12:48:32.570Z,5.99
2017-12-04T12:49:42.579Z,6.01
2017-12-04T12:50:52.267Z,5.92
2017-12-04T12:52:01.964Z,5.91
2017-12-04T12:53:11.658Z,5.77
2017-12-04T12:54:21.623Z,5.79
2017-12-04T12:55:31.343Z,5.77
2017-12-04T12:56:41.036Z,5.7
2017-12-04T12:57:50.999Z,5.58
2017-12-04T12:59:00.732Z,5.61
2017-12-04T13:00:10.186Z,5.47
2017-12-04T13:01:20.163Z,5.51
2017-12-04T13:02:29.599Z,5.41
2017-12-04T13:03:39.291Z,5.29
2017-12-04T13:04:49.255Z,5.36
2017-12-04T13:05:58.699Z,5.28
2017-12-04T13:07:08.403Z,5.23
2017-12-04T13:08:18.099Z,5.23
2017-12-04T13:09:28.071Z,5.26
2017-12-04T13:10:37.777Z,5.18
2017-12-04T13:11:47.727Z,5.18
2017-12-04T13:12:57.684Z,5.12
2017-12-04T13:14:07.653Z,5.18
2017-12-04T13:15:17.364Z,5.13
2017-12-04T13:16:26.810Z,5.15
2017-12-04T13:17:36.776Z,5.15
2017-12-04T13:18:46.215Z,5.04
2017-12-04T13:19:55.645Z,5.16
2017-12-04T13:21:04.826Z,5.15
2017-12-04T13:22:14.524Z,5.18
2017-12-04T13:23:24.231Z,5.16
2017-12-04T13:24:33.654Z,5.19
2017-12-04T13:25:43.351Z,5.2
2017-12-04T13:26:53.052Z,5.16
2017-12-04T13:28:02.999Z,5.18
2017-12-04T13:29:12.707Z,5.15
2017-12-04T13:30:22.657Z,5.18
2017-12-04T13:31:32.659Z,5.18
2017-12-04T13:32:42.673Z,5.22
2017-12-04T13:33:52.109Z,5.26
2017-12-04T13:35:01.296Z,5.26
2017-12-04T13:36:11.017Z,5.29
2017-12-04T13:37:20.733Z,5.26
2017-12-04T13:38:30.681Z,5.31
2017-12-04T13:39:40.628Z,5.28
2017-12-04T13:40:50.064Z,5.29
2017-12-04T13:41:59.762Z,5.33
2017-12-04T13:43:09.723Z,5.34
2017-12-04T13:44:19.167Z,5.46
2017-12-04T13:45:29.119Z,5.44
2017-12-04T13:46:38.822Z,5.55
2017-12-04T13:47:48.258Z,5.67
2017-12-04T13:48:58.199Z,5.8
2017-12-04T13:50:07.629Z,5.95
2017-12-04T13:51:17.360Z,6.07
2017-12-04T13:52:26.808Z,6.1
2017-12-04T13:53:36.778Z,6.15
2017-12-04T13:54:46.220Z,6.25
2017-12-04T13:55:55.667Z,6.35
2017-12-04T13:57:05.106Z,6.28
2017-12-04T13:58:15.114Z,6.28
2017-12-04T13:59:24.829Z,6.26
2017-12-04T14:00:34.840Z,6.15
2017-12-04T14:01:44.853Z,6.09
2017-12-04T14:02:54.554Z,6.02
2017-12-04T14:04:04.006Z,5.99
2017-12-04T14:05:14.028Z,5.94
2017-12-04T14:06:24.226Z,5.81
2017-12-04T14:07:34.178Z,5.8
2017-12-04T14:08:43.884Z,5.64
2017-12-04T14:09:53.853Z,5.64
2017-12-04T14:11:03.829Z,5.67
2017-12-04T14:12:13.552Z,5.59
2017-12-04T14:13:22.731Z,5.58
2017-12-04T14:14:32.741Z,5.51
2017-12-04T14:15:42.454Z,5.43
2017-12-04T14:16:52.429Z,5.41
2017-12-04T14:18:02.149Z,5.51
2017-12-04T14:19:12.106Z,5.4
2017-12-04T14:20:22.022Z,5.4
2017-12-04T14:21:31.463Z,5.33
2017-12-04T14:22:41.183Z,5.34
2017-12-04T14:23:50.923Z,5.31
2017-12-04T14:25:00.647Z,5.26
2017-12-04T14:26:10.598Z,5.23
2017-12-04T14:27:20.298Z,5.2
2017-12-04T14:28:29.821Z,5.19
2017-12-04T14:29:39.512Z,5.19
2017-12-04T14:30:49.200Z,5.19
2017-12-04T14:31:58.907Z,5.16
2017-12-04T14:33:08.353Z,5.15
2017-12-04T14:34:18.314Z,5.02
2017-12-04T14:35:28.022Z,5.04
2017-12-04T14:36:37.719Z,5
2017-12-04T14:37:47.663Z,5.08
2017-12-04T14:38:57.395Z,5
2017-12-04T14:40:07.355Z,5.02
2017-12-04T14:41:17.304Z,5.02
2017-12-04T14:42:26.985Z,4.97
2017-12-04T14:43:36.692Z,4.84
2017-12-04T14:44:46.650Z,4.89
2017-12-04T14:45:56.606Z,4.78
2017-12-04T14:47:06.606Z,4.7
2017-12-04T14:48:16.039Z,4.74
2017-12-04T14:49:26.006Z,4.75
2017-12-04T14:50:35.838Z,4.7
2017-12-04T14:51:45.536Z,4.64
2017-12-04T14:52:55.489Z,4.66
2017-12-04T14:54:04.925Z,4.61
2017-12-04T14:55:14.884Z,4.63
2017-12-04T14:56:24.576Z,4.57
2017-12-04T14:57:34.259Z,4.6
2017-12-04T14:58:44.205Z,4.64
2017-12-04T14:59:53.918Z,4.58
2017-12-04T15:01:03.382Z,4.56
2017-12-04T15:02:13.142Z,4.53
2017-12-04T15:03:22.852Z,4.52
2017-12-04T15:04:32.827Z,4.53
2017-12-04T15:05:42.512Z,4.49
2017-12-04T15:06:52.198Z,4.4
2017-12-04T15:08:01.650Z,4.4
2017-12-04T15:09:11.095Z,4.43
2017-12-04T15:10:21.054Z,4.4
2017-12-04T15:11:31.049Z,4.46
2017-12-04T15:12:40.493Z,4.43
2017-12-04T15:13:50.450Z,4.34
2017-12-04T15:15:00.139Z,4.34
2017-12-04T15:16:10.171Z,4.42
2017-12-04T15:17:20.133Z,4.39
2017-12-04T15:18:29.834Z,4.43
2017-12-04T15:19:39.265Z,4.3
2017-12-04T15:20:48.950Z,4.36
2017-12-04T15:21:58.382Z,4.39
2017-12-04T15:23:08.332Z,4.3
2017-12-04T15:24:18.282Z,4.39
2017-12-04T15:25:28.233Z,4.34
2017-12-04T15:26:38.215Z,4.39
2017-12-04T15:27:47.922Z,4.39
2017-12-04T15:28:57.669Z,4.31
2017-12-04T15:30:07.642Z,4.28
2017-12-04T15:31:17.591Z,4.42
2017-12-04T15:32:27.558Z,4.39
2017-12-04T15:33:37.256Z,4.4